sensor_id;sensor_type;location;lat;lon;timestamp;temperature;humidity
17859;DHT22;35426;30.698;104.050;2022-07-29T00:01:25;34.30;99.90
17859;DHT22;35426;30.698;104.050;2022-07-29T00:04:00;34.60;99.90
17859;DHT22;35426;30.698;104.050;2022-07-29T00:06:37;35.00;99.90
17859;DHT22;35426;30.698;104.050;2022-07-29T00:09:13;35.60;99.90
17859;DHT22;35426;30.698;104.050;2022-07-29T00:11:52;36.00;99.90
17859;DHT22;35426;30.698;104.050;2022-07-29T00:14:31;35.40;99.90
17859;DHT22;35426;30.698;104.050;2022-07-29T00:17:05;35.00;99.90
17859;DHT22;35426;30.698;104.050;2022-07-29T00:19:39;34.80;99.90
17859;DHT22;35426;30.698;104.050;2022-07-29T00:22:14;34.20;99.90
17859;DHT22;35426;30.698;104.050;2022-07-29T00:24:49;34.30;99.90
17859;DHT22;35426;30.698;104.050;2022-07-29T00:27:25;34.70;99.90
17859;DHT22;35426;30.698;104.050;2022-07-29T00:29:58;34.40;99.90
17859;DHT22;35426;30.698;104.050;2022-07-29T00:32:32;34.30;99.90
17859;DHT22;35426;30.698;104.050;2022-07-29T00:35:07;34.40;99.90
17859;DHT22;35426;30.698;104.050;2022-07-29T00:37:56;34.30;99.90
17859;DHT22;35426;30.698;104.050;2022-07-29T00:40:30;34.50;99.90
17859;DHT22;35426;30.698;104.050;2022-07-29T00:43:05;33.60;99.90
17859;DHT22;35426;30.698;104.050;2022-07-29T00:45:39;33.80;99.90
17859;DHT22;35426;30.698;104.050;2022-07-29T00:48:13;34.40;99.90
17859;DHT22;35426;30.698;104.050;2022-07-29T00:51:02;35.00;99.90
17859;DHT22;35426;30.698;104.050;2022-07-29T00:53:37;35.30;99.90
17859;DHT22;35426;30.698;104.050;2022-07-29T00:56:14;35.60;99.90
17859;DHT22;35426;30.698;104.050;2022-07-29T00:58:51;35.20;99.90
17859;DHT22;35426;30.698;104.050;2022-07-29T01:01:26;35.20;99.90
17859;DHT22;35426;30.698;104.050;2022-07-29T01:04:00;35.30;99.90
17859;DHT22;35426;30.698;104.050;2022-07-29T01:06:35;34.60;99.90
17859;DHT22;35426;30.698;104.050;2022-07-29T01:09:10;35.30;99.90
17859;DHT22;35426;30.698;104.050;2022-07-29T01:12:03;35.90;99.90
17859;DHT22;35426;30.698;104.050;2022-07-29T01:14:40;36.00;99.90
17859;DHT22;35426;30.698;104.050;2022-07-29T01:17:18;36.30;99.90
17859;DHT22;35426;30.698;104.050;2022-07-29T01:19:59;36.00;99.90
17859;DHT22;35426;30.698;104.050;2022-07-29T01:22:44;35.20;99.90
17859;DHT22;35426;30.698;104.050;2022-07-29T01:25:32;35.60;99.90
17859;DHT22;35426;30.698;104.050;2022-07-29T01:31:18;35.70;99.90
17859;DHT22;35426;30.698;104.050;2022-07-29T01:34:07;36.30;99.90
17859;DHT22;35426;30.698;104.050;2022-07-29T01:36:47;36.10;99.90
17859;DHT22;35426;30.698;104.050;2022-07-29T01:39:26;37.10;99.90
17859;DHT22;35426;30.698;104.050;2022-07-29T01:42:08;37.70;99.90
17859;DHT22;35426;30.698;104.050;2022-07-29T01:44:48;37.50;99.90
17859;DHT22;35426;30.698;104.050;2022-07-29T01:47:31;38.20;99.90
17859;DHT22;35426;30.698;104.050;2022-07-29T01:50:11;38.40;99.90
17859;DHT22;35426;30.698;104.050;2022-07-29T01:52:49;39.10;99.90
17859;DHT22;35426;30.698;104.050;2022-07-29T01:55:28;39.50;99.90
17859;DHT22;35426;30.698;104.050;2022-07-29T01:58:04;39.40;99.90
17859;DHT22;35426;30.698;104.050;2022-07-29T02:00:40;39.80;99.90
17859;DHT22;35426;30.698;104.050;2022-07-29T02:03:17;37.80;99.90
17859;DHT22;35426;30.698;104.050;2022-07-29T02:05:52;36.70;99.90
17859;DHT22;35426;30.698;104.050;2022-07-29T02:08:27;37.70;99.90
17859;DHT22;35426;30.698;104.050;2022-07-29T02:11:01;37.70;99.90
17859;DHT22;35426;30.698;104.050;2022-07-29T02:13:38;38.80;99.90
17859;DHT22;35426;30.698;104.050;2022-07-29T02:16:15;38.70;99.90
17859;DHT22;35426;30.698;104.050;2022-07-29T02:18:54;38.30;99.90
17859;DHT22;35426;30.698;104.050;2022-07-29T02:21:30;37.80;99.90
17859;DHT22;35426;30.698;104.050;2022-07-29T02:24:12;37.70;99.90
17859;DHT22;35426;30.698;104.050;2022-07-29T02:26:53;37.40;99.90
17859;DHT22;35426;30.698;104.050;2022-07-29T02:29:30;38.10;99.90
17859;DHT22;35426;30.698;104.050;2022-07-29T02:32:05;38.70;99.90
17859;DHT22;35426;30.698;104.050;2022-07-29T02:35:07;38.50;99.90
17859;DHT22;35426;30.698;104.050;2022-07-29T02:37:41;39.10;99.90
17859;DHT22;35426;30.698;104.050;2022-07-29T02:40:16;39.30;99.90
17859;DHT22;35426;30.698;104.050;2022-07-29T02:42:50;39.20;99.90
17859;DHT22;35426;30.698;104.050;2022-07-29T02:45:24;38.30;99.90
17859;DHT22;35426;30.698;104.050;2022-07-29T02:48:05;38.20;99.90
17859;DHT22;35426;30.698;104.050;2022-07-29T02:50:47;38.70;99.90
17859;DHT22;35426;30.698;104.050;2022-07-29T02:53:25;37.70;99.90
17859;DHT22;35426;30.698;104.050;2022-07-29T02:56:01;38.20;99.90
17859;DHT22;35426;30.698;104.050;2022-07-29T02:58:40;38.00;99.90
17859;DHT22;35426;30.698;104.050;2022-07-29T03:01:16;39.70;99.90
17859;DHT22;35426;30.698;104.050;2022-07-29T03:03:54;39.90;99.90
17859;DHT22;35426;30.698;104.050;2022-07-29T03:06:30;39.90;99.90
17859;DHT22;35426;30.698;104.050;2022-07-29T03:09:08;39.50;99.90
17859;DHT22;35426;30.698;104.050;2022-07-29T03:11:45;39.60;99.90
17859;DHT22;35426;30.698;104.050;2022-07-29T03:14:20;39.70;99.90
17859;DHT22;35426;30.698;104.050;2022-07-29T03:16:54;39.90;99.90
17859;DHT22;35426;30.698;104.050;2022-07-29T03:19:28;39.80;99.90
17859;DHT22;35426;30.698;104.050;2022-07-29T03:22:04;39.40;99.90
17859;DHT22;35426;30.698;104.050;2022-07-29T03:24:38;38.40;99.90
17859;DHT22;35426;30.698;104.050;2022-07-29T03:27:15;38.60;99.90
17859;DHT22;35426;30.698;104.050;2022-07-29T03:29:49;39.10;99.90
17859;DHT22;35426;30.698;104.050;2022-07-29T03:32:24;37.80;99.90
17859;DHT22;35426;30.698;104.050;2022-07-29T03:34:58;38.10;99.90
17859;DHT22;35426;30.698;104.050;2022-07-29T03:37:34;38.10;99.90
17859;DHT22;35426;30.698;104.050;2022-07-29T03:40:22;37.90;99.90
17859;DHT22;35426;30.698;104.050;2022-07-29T03:42:58;37.10;99.90
17859;DHT22;35426;30.698;104.050;2022-07-29T03:45:36;37.30;99.90
17859;DHT22;35426;30.698;104.050;2022-07-29T03:48:14;36.80;99.90
17859;DHT22;35426;30.698;104.050;2022-07-29T03:50:49;36.40;99.90
17859;DHT22;35426;30.698;104.050;2022-07-29T03:53:25;35.60;99.90
17859;DHT22;35426;30.698;104.050;2022-07-29T03:56:00;35.50;99.90
17859;DHT22;35426;30.698;104.050;2022-07-29T03:58:35;35.20;99.90
17859;DHT22;35426;30.698;104.050;2022-07-29T04:01:11;35.60;99.90
17859;DHT22;35426;30.698;104.050;2022-07-29T04:03:45;35.60;99.90
17859;DHT22;35426;30.698;104.050;2022-07-29T04:06:19;34.90;99.90
17859;DHT22;35426;30.698;104.050;2022-07-29T04:08:54;34.60;99.90
17859;DHT22;35426;30.698;104.050;2022-07-29T04:11:28;34.70;99.90
17859;DHT22;35426;30.698;104.050;2022-07-29T04:14:25;34.50;99.90
17859;DHT22;35426;30.698;104.050;2022-07-29T04:16:58;34.60;99.90
17859;DHT22;35426;30.698;104.050;2022-07-29T04:19:32;34.60;99.90
17859;DHT22;35426;30.698;104.050;2022-07-29T04:22:06;34.60;99.90
17859;DHT22;35426;30.698;104.050;2022-07-29T04:24:41;34.90;99.90
17859;DHT22;35426;30.698;104.050;2022-07-29T04:27:16;34.90;99.90
17859;DHT22;35426;30.698;104.050;2022-07-29T04:29:52;35.00;99.90
17859;DHT22;35426;30.698;104.050;2022-07-29T04:32:32;35.30;99.90
17859;DHT22;35426;30.698;104.050;2022-07-29T04:35:07;35.20;99.90
17859;DHT22;35426;30.698;104.050;2022-07-29T04:37:40;35.00;99.90
17859;DHT22;35426;30.698;104.050;2022-07-29T04:40:16;34.80;99.90
17859;DHT22;35426;30.698;104.050;2022-07-29T04:42:49;34.60;99.90
17859;DHT22;35426;30.698;104.050;2022-07-29T04:45:23;34.70;99.90
17859;DHT22;35426;30.698;104.050;2022-07-29T04:47:57;34.90;99.90
17859;DHT22;35426;30.698;104.050;2022-07-29T04:50:31;35.00;99.90
17859;DHT22;35426;30.698;104.050;2022-07-29T04:53:05;35.10;99.90
17859;DHT22;35426;30.698;104.050;2022-07-29T04:55:40;35.60;99.90
17859;DHT22;35426;30.698;104.050;2022-07-29T04:58:14;35.50;99.90
17859;DHT22;35426;30.698;104.050;2022-07-29T05:00:48;35.40;99.90
17859;DHT22;35426;30.698;104.050;2022-07-29T05:03:22;35.30;99.90
17859;DHT22;35426;30.698;104.050;2022-07-29T05:05:56;35.40;99.90
17859;DHT22;35426;30.698;104.050;2022-07-29T05:08:30;35.50;99.90
17859;DHT22;35426;30.698;104.050;2022-07-29T05:11:08;35.60;99.90
17859;DHT22;35426;30.698;104.050;2022-07-29T05:13:50;35.90;99.90
17859;DHT22;35426;30.698;104.050;2022-07-29T05:16:24;36.50;99.90
17859;DHT22;35426;30.698;104.050;2022-07-29T05:18:58;36.80;99.90
17859;DHT22;35426;30.698;104.050;2022-07-29T05:21:32;37.10;99.90
17859;DHT22;35426;30.698;104.050;2022-07-29T05:24:06;36.90;99.90
17859;DHT22;35426;30.698;104.050;2022-07-29T05:26:42;36.90;99.90
17859;DHT22;35426;30.698;104.050;2022-07-29T05:29:19;36.80;99.90
17859;DHT22;35426;30.698;104.050;2022-07-29T05:32:13;36.60;99.90
17859;DHT22;35426;30.698;104.050;2022-07-29T05:34:47;36.50;99.90
17859;DHT22;35426;30.698;104.050;2022-07-29T05:37:23;36.40;99.90
17859;DHT22;35426;30.698;104.050;2022-07-29T05:39:55;36.50;99.90
17859;DHT22;35426;30.698;104.050;2022-07-29T05:42:33;36.60;99.90
17859;DHT22;35426;30.698;104.050;2022-07-29T05:45:06;36.20;99.90
17859;DHT22;35426;30.698;104.050;2022-07-29T05:47:43;36.10;99.90
17859;DHT22;35426;30.698;104.050;2022-07-29T05:50:16;35.90;99.90
17859;DHT22;35426;30.698;104.050;2022-07-29T05:52:50;36.20;99.90
17859;DHT22;35426;30.698;104.050;2022-07-29T05:55:51;36.00;99.90
17859;DHT22;35426;30.698;104.050;2022-07-29T05:58:35;35.60;99.90
17859;DHT22;35426;30.698;104.050;2022-07-29T06:01:12;36.20;99.90
17859;DHT22;35426;30.698;104.050;2022-07-29T06:03:56;36.20;99.90
17859;DHT22;35426;30.698;104.050;2022-07-29T06:06:37;36.20;99.90
17859;DHT22;35426;30.698;104.050;2022-07-29T06:09:13;36.10;99.90
17859;DHT22;35426;30.698;104.050;2022-07-29T06:11:47;36.00;99.90
17859;DHT22;35426;30.698;104.050;2022-07-29T06:14:23;35.90;99.90
17859;DHT22;35426;30.698;104.050;2022-07-29T06:16:57;36.30;99.90
17859;DHT22;35426;30.698;104.050;2022-07-29T06:19:43;36.60;99.90
17859;DHT22;35426;30.698;104.050;2022-07-29T06:22:16;36.60;99.90
17859;DHT22;35426;30.698;104.050;2022-07-29T06:24:50;36.60;99.90
17859;DHT22;35426;30.698;104.050;2022-07-29T06:27:27;36.70;99.90
17859;DHT22;35426;30.698;104.050;2022-07-29T06:30:04;36.80;99.90
17859;DHT22;35426;30.698;104.050;2022-07-29T06:32:40;36.30;99.90
17859;DHT22;35426;30.698;104.050;2022-07-29T06:35:14;35.70;99.90
17859;DHT22;35426;30.698;104.050;2022-07-29T06:38:16;36.00;99.90
17859;DHT22;35426;30.698;104.050;2022-07-29T06:41:03;36.50;99.90
17859;DHT22;35426;30.698;104.050;2022-07-29T06:43:39;36.70;99.90
17859;DHT22;35426;30.698;104.050;2022-07-29T06:46:22;36.90;99.90
17859;DHT22;35426;30.698;104.050;2022-07-29T06:48:56;36.90;99.90
17859;DHT22;35426;30.698;104.050;2022-07-29T06:51:33;36.90;99.90
17859;DHT22;35426;30.698;104.050;2022-07-29T06:54:12;37.30;99.90
17859;DHT22;35426;30.698;104.050;2022-07-29T06:56:47;37.10;99.90
17859;DHT22;35426;30.698;104.050;2022-07-29T06:59:21;37.10;99.90
17859;DHT22;35426;30.698;104.050;2022-07-29T07:02:06;36.80;99.90
17859;DHT22;35426;30.698;104.050;2022-07-29T07:04:40;36.60;99.90
17859;DHT22;35426;30.698;104.050;2022-07-29T07:07:17;36.70;99.90
17859;DHT22;35426;30.698;104.050;2022-07-29T07:09:51;36.60;99.90
17859;DHT22;35426;30.698;104.050;2022-07-29T07:12:26;36.50;99.90
17859;DHT22;35426;30.698;104.050;2022-07-29T07:15:00;36.50;99.90
17859;DHT22;35426;30.698;104.050;2022-07-29T07:17:36;36.50;99.90
17859;DHT22;35426;30.698;104.050;2022-07-29T07:20:13;36.70;99.90
17859;DHT22;35426;30.698;104.050;2022-07-29T07:22:48;36.80;99.90
17859;DHT22;35426;30.698;104.050;2022-07-29T07:25:22;36.70;99.90
17859;DHT22;35426;30.698;104.050;2022-07-29T07:27:56;36.50;99.90
17859;DHT22;35426;30.698;104.050;2022-07-29T07:30:34;36.50;99.90
17859;DHT22;35426;30.698;104.050;2022-07-29T07:33:10;36.60;99.90
17859;DHT22;35426;30.698;104.050;2022-07-29T07:35:47;36.50;99.90
17859;DHT22;35426;30.698;104.050;2022-07-29T07:38:21;36.40;99.90
17859;DHT22;35426;30.698;104.050;2022-07-29T07:40:55;36.10;99.90
17859;DHT22;35426;30.698;104.050;2022-07-29T07:43:29;36.10;99.90
17859;DHT22;35426;30.698;104.050;2022-07-29T07:46:03;36.00;99.90
17859;DHT22;35426;30.698;104.050;2022-07-29T07:48:39;35.90;99.90
17859;DHT22;35426;30.698;104.050;2022-07-29T07:51:15;35.70;99.90
17859;DHT22;35426;30.698;104.050;2022-07-29T07:53:50;35.80;99.90
17859;DHT22;35426;30.698;104.050;2022-07-29T07:56:26;35.90;99.90
17859;DHT22;35426;30.698;104.050;2022-07-29T07:59:04;35.90;99.90
17859;DHT22;35426;30.698;104.050;2022-07-29T08:01:39;36.00;99.90
17859;DHT22;35426;30.698;104.050;2022-07-29T08:04:26;35.90;99.90
17859;DHT22;35426;30.698;104.050;2022-07-29T08:07:01;35.70;99.90
17859;DHT22;35426;30.698;104.050;2022-07-29T08:09:35;35.70;99.90
17859;DHT22;35426;30.698;104.050;2022-07-29T08:12:10;35.80;99.90
17859;DHT22;35426;30.698;104.050;2022-07-29T08:14:45;35.80;99.90
17859;DHT22;35426;30.698;104.050;2022-07-29T08:17:19;35.90;99.90
17859;DHT22;35426;30.698;104.050;2022-07-29T08:19:56;36.00;99.90
17859;DHT22;35426;30.698;104.050;2022-07-29T08:22:31;36.00;99.90
17859;DHT22;35426;30.698;104.050;2022-07-29T08:25:06;36.00;99.90
17859;DHT22;35426;30.698;104.050;2022-07-29T08:27:45;35.90;99.90
17859;DHT22;35426;30.698;104.050;2022-07-29T08:30:21;35.70;99.90
17859;DHT22;35426;30.698;104.050;2022-07-29T08:32:55;35.50;99.90
17859;DHT22;35426;30.698;104.050;2022-07-29T08:35:31;35.20;99.90
17859;DHT22;35426;30.698;104.050;2022-07-29T08:38:06;34.40;99.90
17859;DHT22;35426;30.698;104.050;2022-07-29T08:40:41;33.90;99.90
17859;DHT22;35426;30.698;104.050;2022-07-29T08:43:16;33.50;99.90
17859;DHT22;35426;30.698;104.050;2022-07-29T08:45:52;33.40;99.90
17859;DHT22;35426;30.698;104.050;2022-07-29T08:48:28;33.30;99.90
17859;DHT22;35426;30.698;104.050;2022-07-29T08:51:14;33.20;99.90
17859;DHT22;35426;30.698;104.050;2022-07-29T08:53:52;33.30;99.90
17859;DHT22;35426;30.698;104.050;2022-07-29T08:56:27;33.40;99.90
17859;DHT22;35426;30.698;104.050;2022-07-29T08:59:04;33.30;99.90
17859;DHT22;35426;30.698;104.050;2022-07-29T09:01:41;33.10;99.90
17859;DHT22;35426;30.698;104.050;2022-07-29T09:04:18;33.20;99.90
17859;DHT22;35426;30.698;104.050;2022-07-29T09:07:04;33.00;99.90
17859;DHT22;35426;30.698;104.050;2022-07-29T09:09:39;33.00;99.90
17859;DHT22;35426;30.698;104.050;2022-07-29T09:12:14;33.10;99.90
17859;DHT22;35426;30.698;104.050;2022-07-29T09:14:59;32.90;99.90
17859;DHT22;35426;30.698;104.050;2022-07-29T09:17:44;33.00;99.90
17859;DHT22;35426;30.698;104.050;2022-07-29T09:20:20;32.90;99.90
17859;DHT22;35426;30.698;104.050;2022-07-29T09:22:56;32.80;99.90
17859;DHT22;35426;30.698;104.050;2022-07-29T09:25:34;32.80;99.90
17859;DHT22;35426;30.698;104.050;2022-07-29T09:28:12;32.70;99.90
17859;DHT22;35426;30.698;104.050;2022-07-29T09:30:57;32.70;99.90
17859;DHT22;35426;30.698;104.050;2022-07-29T09:33:34;32.80;99.90
17859;DHT22;35426;30.698;104.050;2022-07-29T09:36:13;32.90;99.90
17859;DHT22;35426;30.698;104.050;2022-07-29T09:39:00;33.00;99.90
17859;DHT22;35426;30.698;104.050;2022-07-29T09:41:48;33.40;99.90
17859;DHT22;35426;30.698;104.050;2022-07-29T09:44:24;33.60;99.90
17859;DHT22;35426;30.698;104.050;2022-07-29T09:47:00;33.50;99.90
17859;DHT22;35426;30.698;104.050;2022-07-29T09:49:50;33.50;99.90
17859;DHT22;35426;30.698;104.050;2022-07-29T09:52:24;33.40;99.90
17859;DHT22;35426;30.698;104.050;2022-07-29T09:55:09;33.20;99.90
17859;DHT22;35426;30.698;104.050;2022-07-29T09:57:47;33.00;99.90
17859;DHT22;35426;30.698;104.050;2022-07-29T10:00:22;33.20;99.90
17859;DHT22;35426;30.698;104.050;2022-07-29T10:03:01;33.20;99.90
17859;DHT22;35426;30.698;104.050;2022-07-29T10:06:07;33.20;99.90
17859;DHT22;35426;30.698;104.050;2022-07-29T10:08:42;33.10;99.90
17859;DHT22;35426;30.698;104.050;2022-07-29T10:11:19;32.90;99.90
17859;DHT22;35426;30.698;104.050;2022-07-29T10:14:14;32.80;99.90
17859;DHT22;35426;30.698;104.050;2022-07-29T10:16:49;32.80;99.90
17859;DHT22;35426;30.698;104.050;2022-07-29T10:19:23;32.70;99.90
17859;DHT22;35426;30.698;104.050;2022-07-29T10:21:58;32.60;99.90
17859;DHT22;35426;30.698;104.050;2022-07-29T10:24:34;32.60;99.90
17859;DHT22;35426;30.698;104.050;2022-07-29T10:27:10;32.60;99.90
17859;DHT22;35426;30.698;104.050;2022-07-29T10:29:47;32.60;99.90
17859;DHT22;35426;30.698;104.050;2022-07-29T10:32:33;32.60;99.90
17859;DHT22;35426;30.698;104.050;2022-07-29T10:35:33;32.50;99.90
17859;DHT22;35426;30.698;104.050;2022-07-29T10:38:34;32.50;99.90
17859;DHT22;35426;30.698;104.050;2022-07-29T10:41:43;32.50;99.90
17859;DHT22;35426;30.698;104.050;2022-07-29T10:44:23;32.50;99.90
17859;DHT22;35426;30.698;104.050;2022-07-29T10:46:58;32.60;99.90
17859;DHT22;35426;30.698;104.050;2022-07-29T10:49:32;32.60;99.90
17859;DHT22;35426;30.698;104.050;2022-07-29T10:52:09;32.50;99.90
17859;DHT22;35426;30.698;104.050;2022-07-29T10:54:48;32.70;99.90
17859;DHT22;35426;30.698;104.050;2022-07-29T10:57:26;32.80;99.90
17859;DHT22;35426;30.698;104.050;2022-07-29T11:00:31;32.70;99.90
17859;DHT22;35426;30.698;104.050;2022-07-29T11:03:44;32.50;99.90
17859;DHT22;35426;30.698;104.050;2022-07-29T11:06:25;32.40;99.90
17859;DHT22;35426;30.698;104.050;2022-07-29T11:09:21;32.30;99.90
17859;DHT22;35426;30.698;104.050;2022-07-29T11:12:48;32.30;99.90
17859;DHT22;35426;30.698;104.050;2022-07-29T11:15:23;32.30;99.90
17859;DHT22;35426;30.698;104.050;2022-07-29T11:18:23;32.30;99.90
17859;DHT22;35426;30.698;104.050;2022-07-29T11:21:00;32.40;99.90
17859;DHT22;35426;30.698;104.050;2022-07-29T11:24:40;32.40;99.90
17859;DHT22;35426;30.698;104.050;2022-07-29T11:27:32;32.30;99.90
17859;DHT22;35426;30.698;104.050;2022-07-29T11:30:14;32.20;99.90
17859;DHT22;35426;30.698;104.050;2022-07-29T11:32:53;32.10;99.90
17859;DHT22;35426;30.698;104.050;2022-07-29T11:35:30;31.90;99.90
17859;DHT22;35426;30.698;104.050;2022-07-29T11:38:27;31.80;99.90
17859;DHT22;35426;30.698;104.050;2022-07-29T11:41:21;31.90;99.90
17859;DHT22;35426;30.698;104.050;2022-07-29T11:43:57;31.80;99.90
17859;DHT22;35426;30.698;104.050;2022-07-29T11:46:46;31.80;99.90
17859;DHT22;35426;30.698;104.050;2022-07-29T11:49:23;31.80;99.90
17859;DHT22;35426;30.698;104.050;2022-07-29T11:52:03;31.60;99.90
17859;DHT22;35426;30.698;104.050;2022-07-29T11:54:51;31.60;99.90
17859;DHT22;35426;30.698;104.050;2022-07-29T11:57:32;31.60;99.90
17859;DHT22;35426;30.698;104.050;2022-07-29T12:00:19;31.70;99.90
17859;DHT22;35426;30.698;104.050;2022-07-29T12:02:56;31.60;99.90
17859;DHT22;35426;30.698;104.050;2022-07-29T12:05:35;31.50;99.90
17859;DHT22;35426;30.698;104.050;2022-07-29T12:08:22;31.50;99.90
17859;DHT22;35426;30.698;104.050;2022-07-29T12:11:17;31.50;99.90
17859;DHT22;35426;30.698;104.050;2022-07-29T12:13:52;31.40;99.90
17859;DHT22;35426;30.698;104.050;2022-07-29T12:16:35;31.50;99.90
17859;DHT22;35426;30.698;104.050;2022-07-29T12:19:10;31.40;99.90
17859;DHT22;35426;30.698;104.050;2022-07-29T12:21:47;31.40;99.90
17859;DHT22;35426;30.698;104.050;2022-07-29T12:24:43;31.40;99.90
17859;DHT22;35426;30.698;104.050;2022-07-29T12:27:36;31.40;99.90
17859;DHT22;35426;30.698;104.050;2022-07-29T12:30:11;31.50;99.90
17859;DHT22;35426;30.698;104.050;2022-07-29T12:32:47;31.50;99.90
17859;DHT22;35426;30.698;104.050;2022-07-29T12:35:21;31.50;99.90
17859;DHT22;35426;30.698;104.050;2022-07-29T12:37:55;31.60;99.90
17859;DHT22;35426;30.698;104.050;2022-07-29T12:40:32;31.60;99.90
17859;DHT22;35426;30.698;104.050;2022-07-29T12:43:08;31.50;99.90
17859;DHT22;35426;30.698;104.050;2022-07-29T12:45:44;31.50;99.90
17859;DHT22;35426;30.698;104.050;2022-07-29T12:48:34;31.60;99.90
17859;DHT22;35426;30.698;104.050;2022-07-29T12:51:09;31.60;99.90
17859;DHT22;35426;30.698;104.050;2022-07-29T12:54:05;31.60;99.90
17859;DHT22;35426;30.698;104.050;2022-07-29T12:56:41;31.70;99.90
17859;DHT22;35426;30.698;104.050;2022-07-29T12:59:17;31.60;99.90
17859;DHT22;35426;30.698;104.050;2022-07-29T13:01:52;31.60;99.90
17859;DHT22;35426;30.698;104.050;2022-07-29T13:04:27;31.60;99.90
17859;DHT22;35426;30.698;104.050;2022-07-29T13:07:02;31.60;99.90
17859;DHT22;35426;30.698;104.050;2022-07-29T13:09:39;31.60;99.90
17859;DHT22;35426;30.698;104.050;2022-07-29T13:12:15;31.70;99.90
17859;DHT22;35426;30.698;104.050;2022-07-29T13:14:50;31.70;99.90
17859;DHT22;35426;30.698;104.050;2022-07-29T13:17:24;31.60;99.90
17859;DHT22;35426;30.698;104.050;2022-07-29T13:20:06;31.60;99.90
17859;DHT22;35426;30.698;104.050;2022-07-29T13:22:47;31.70;99.90
17859;DHT22;35426;30.698;104.050;2022-07-29T13:25:26;31.70;99.90
17859;DHT22;35426;30.698;104.050;2022-07-29T13:28:08;31.70;99.90
17859;DHT22;35426;30.698;104.050;2022-07-29T13:30:42;31.70;99.90
17859;DHT22;35426;30.698;104.050;2022-07-29T13:33:16;31.70;99.90
17859;DHT22;35426;30.698;104.050;2022-07-29T13:35:50;31.70;99.90
17859;DHT22;35426;30.698;104.050;2022-07-29T13:38:24;31.70;99.90
17859;DHT22;35426;30.698;104.050;2022-07-29T13:40:59;31.60;99.90
17859;DHT22;35426;30.698;104.050;2022-07-29T13:43:36;31.70;99.90
17859;DHT22;35426;30.698;104.050;2022-07-29T13:46:10;31.60;99.90
17859;DHT22;35426;30.698;104.050;2022-07-29T13:48:44;31.70;99.90
17859;DHT22;35426;30.698;104.050;2022-07-29T13:51:18;31.70;99.90
17859;DHT22;35426;30.698;104.050;2022-07-29T13:53:52;31.60;99.90
17859;DHT22;35426;30.698;104.050;2022-07-29T13:56:26;31.60;99.90
17859;DHT22;35426;30.698;104.050;2022-07-29T13:59:04;31.60;99.90
17859;DHT22;35426;30.698;104.050;2022-07-29T14:01:40;31.50;99.90
17859;DHT22;35426;30.698;104.050;2022-07-29T14:04:15;31.50;99.90
17859;DHT22;35426;30.698;104.050;2022-07-29T14:06:50;31.50;99.90
17859;DHT22;35426;30.698;104.050;2022-07-29T14:09:25;31.60;99.90
17859;DHT22;35426;30.698;104.050;2022-07-29T14:12:10;31.60;99.90
17859;DHT22;35426;30.698;104.050;2022-07-29T14:14:46;31.50;99.90
17859;DHT22;35426;30.698;104.050;2022-07-29T14:17:21;31.50;99.90
17859;DHT22;35426;30.698;104.050;2022-07-29T14:19:55;31.40;99.90
17859;DHT22;35426;30.698;104.050;2022-07-29T14:22:31;31.40;99.90
17859;DHT22;35426;30.698;104.050;2022-07-29T14:25:22;31.60;99.90
17859;DHT22;35426;30.698;104.050;2022-07-29T14:27:56;31.80;99.90
17859;DHT22;35426;30.698;104.050;2022-07-29T14:30:50;31.80;99.90
17859;DHT22;35426;30.698;104.050;2022-07-29T14:33:24;31.70;99.90
17859;DHT22;35426;30.698;104.050;2022-07-29T14:35:58;31.50;99.90
17859;DHT22;35426;30.698;104.050;2022-07-29T14:38:32;31.40;99.90
17859;DHT22;35426;30.698;104.050;2022-07-29T14:41:07;31.40;99.90
17859;DHT22;35426;30.698;104.050;2022-07-29T14:43:41;31.50;99.90
17859;DHT22;35426;30.698;104.050;2022-07-29T14:46:17;31.50;99.90
17859;DHT22;35426;30.698;104.050;2022-07-29T14:48:51;31.50;99.90
17859;DHT22;35426;30.698;104.050;2022-07-29T14:51:26;31.40;99.90
17859;DHT22;35426;30.698;104.050;2022-07-29T14:54:04;31.40;99.90
17859;DHT22;35426;30.698;104.050;2022-07-29T14:56:38;31.30;99.90
17859;DHT22;35426;30.698;104.050;2022-07-29T14:59:16;31.40;99.90
17859;DHT22;35426;30.698;104.050;2022-07-29T15:01:53;31.40;99.90
17859;DHT22;35426;30.698;104.050;2022-07-29T15:04:30;31.40;99.90
17859;DHT22;35426;30.698;104.050;2022-07-29T15:07:04;31.40;99.90
17859;DHT22;35426;30.698;104.050;2022-07-29T15:09:40;31.40;99.90
17859;DHT22;35426;30.698;104.050;2022-07-29T15:12:19;31.40;99.90
17859;DHT22;35426;30.698;104.050;2022-07-29T15:14:53;31.30;99.90
17859;DHT22;35426;30.698;104.050;2022-07-29T15:17:29;31.30;99.90
17859;DHT22;35426;30.698;104.050;2022-07-29T15:20:03;31.30;99.90
17859;DHT22;35426;30.698;104.050;2022-07-29T15:22:37;31.20;99.90
17859;DHT22;35426;30.698;104.050;2022-07-29T15:25:15;31.20;99.90
17859;DHT22;35426;30.698;104.050;2022-07-29T15:27:50;31.20;99.90
17859;DHT22;35426;30.698;104.050;2022-07-29T15:30:31;31.10;99.90
17859;DHT22;35426;30.698;104.050;2022-07-29T15:33:13;31.20;99.90
17859;DHT22;35426;30.698;104.050;2022-07-29T15:35:47;31.20;99.90
17859;DHT22;35426;30.698;104.050;2022-07-29T15:38:21;31.20;99.90
17859;DHT22;35426;30.698;104.050;2022-07-29T15:40:57;31.10;99.90
17859;DHT22;35426;30.698;104.050;2022-07-29T15:43:32;31.10;99.90
17859;DHT22;35426;30.698;104.050;2022-07-29T15:46:08;31.10;99.90
17859;DHT22;35426;30.698;104.050;2022-07-29T15:49:01;31.10;99.90
17859;DHT22;35426;30.698;104.050;2022-07-29T15:51:38;31.00;99.90
17859;DHT22;35426;30.698;104.050;2022-07-29T15:54:12;31.00;99.90
17859;DHT22;35426;30.698;104.050;2022-07-29T15:56:48;30.90;99.90
17859;DHT22;35426;30.698;104.050;2022-07-29T15:59:24;30.90;99.90
17859;DHT22;35426;30.698;104.050;2022-07-29T16:01:58;30.90;99.90
17859;DHT22;35426;30.698;104.050;2022-07-29T16:04:34;30.90;99.90
17859;DHT22;35426;30.698;104.050;2022-07-29T16:07:08;30.80;99.90
17859;DHT22;35426;30.698;104.050;2022-07-29T16:09:43;30.80;99.90
17859;DHT22;35426;30.698;104.050;2022-07-29T16:12:22;30.60;99.90
17859;DHT22;35426;30.698;104.050;2022-07-29T16:14:56;30.60;99.90